sensor_id;sensor_type;location;lat;lon;timestamp;P1;durP1;ratioP1;P2;durP2;ratioP2
14736;SDS011;7459;53.590;10.062;2023-04-24T00:00:17;6.10;;;3.60;;
14736;SDS011;7459;53.590;10.062;2023-04-24T00:02:43;6.57;;;3.90;;
14736;SDS011;7459;53.590;10.062;2023-04-24T00:05:15;7.03;;;3.80;;
14736;SDS011;7459;53.590;10.062;2023-04-24T00:07:42;6.40;;;3.15;;
14736;SDS011;7459;53.590;10.062;2023-04-24T00:10:09;6.72;;;3.50;;
14736;SDS011;7459;53.590;10.062;2023-04-24T00:12:35;7.50;;;3.38;;
14736;SDS011;7459;53.590;10.062;2023-04-24T00:15:02;8.10;;;3.70;;
14736;SDS011;7459;53.590;10.062;2023-04-24T00:17:28;6.87;;;3.63;;
14736;SDS011;7459;53.590;10.062;2023-04-24T00:19:55;8.27;;;3.35;;
14736;SDS011;7459;53.590;10.062;2023-04-24T00:22:24;7.32;;;3.35;;
14736;SDS011;7459;53.590;10.062;2023-04-24T00:24:50;6.70;;;4.00;;
14736;SDS011;7459;53.590;10.062;2023-04-24T00:27:16;5.90;;;3.50;;
14736;SDS011;7459;53.590;10.062;2023-04-24T00:29:42;8.23;;;3.65;;
14736;SDS011;7459;53.590;10.062;2023-04-24T00:32:07;6.07;;;3.03;;
14736;SDS011;7459;53.590;10.062;2023-04-24T00:34:33;7.07;;;2.85;;
14736;SDS011;7459;53.590;10.062;2023-04-24T00:36:59;6.03;;;3.47;;
14736;SDS011;7459;53.590;10.062;2023-04-24T00:39:25;5.97;;;3.30;;
14736;SDS011;7459;53.590;10.062;2023-04-24T00:41:50;6.60;;;3.08;;
14736;SDS011;7459;53.590;10.062;2023-04-24T00:44:17;7.57;;;3.37;;
14736;SDS011;7459;53.590;10.062;2023-04-24T00:46:43;5.80;;;3.47;;
14736;SDS011;7459;53.590;10.062;2023-04-24T00:49:08;6.63;;;3.50;;
14736;SDS011;7459;53.590;10.062;2023-04-24T00:51:34;6.00;;;3.30;;
14736;SDS011;7459;53.590;10.062;2023-04-24T00:54:01;7.25;;;3.40;;
14736;SDS011;7459;53.590;10.062;2023-04-24T00:56:27;6.88;;;3.10;;
14736;SDS011;7459;53.590;10.062;2023-04-24T00:58:53;6.07;;;3.30;;
14736;SDS011;7459;53.590;10.062;2023-04-24T01:01:19;6.30;;;2.83;;
14736;SDS011;7459;53.590;10.062;2023-04-24T01:03:46;5.90;;;3.17;;
14736;SDS011;7459;53.590;10.062;2023-04-24T01:06:14;6.72;;;3.40;;
14736;SDS011;7459;53.590;10.062;2023-04-24T01:08:40;6.90;;;3.40;;
14736;SDS011;7459;53.590;10.062;2023-04-24T01:11:07;6.03;;;3.45;;
14736;SDS011;7459;53.590;10.062;2023-04-24T01:13:33;6.55;;;3.35;;
14736;SDS011;7459;53.590;10.062;2023-04-24T01:15:59;6.40;;;3.28;;
14736;SDS011;7459;53.590;10.062;2023-04-24T01:18:25;6.70;;;3.13;;
14736;SDS011;7459;53.590;10.062;2023-04-24T01:20:53;6.27;;;3.07;;
14736;SDS011;7459;53.590;10.062;2023-04-24T01:23:22;6.03;;;3.40;;
14736;SDS011;7459;53.590;10.062;2023-04-24T01:25:49;7.68;;;3.50;;
14736;SDS011;7459;53.590;10.062;2023-04-24T01:28:15;5.95;;;3.10;;
14736;SDS011;7459;53.590;10.062;2023-04-24T01:30:42;5.87;;;2.93;;
14736;SDS011;7459;53.590;10.062;2023-04-24T01:33:08;5.90;;;3.40;;
14736;SDS011;7459;53.590;10.062;2023-04-24T01:35:35;6.78;;;3.35;;
14736;SDS011;7459;53.590;10.062;2023-04-24T01:38:02;5.70;;;3.40;;
14736;SDS011;7459;53.590;10.062;2023-04-24T01:40:28;5.85;;;2.80;;
14736;SDS011;7459;53.590;10.062;2023-04-24T01:42:54;7.70;;;3.17;;
14736;SDS011;7459;53.590;10.062;2023-04-24T01:45:20;4.70;;;2.70;;
14736;SDS011;7459;53.590;10.062;2023-04-24T01:47:45;6.27;;;3.03;;
14736;SDS011;7459;53.590;10.062;2023-04-24T01:50:13;5.13;;;3.00;;
14736;SDS011;7459;53.590;10.062;2023-04-24T01:52:39;6.13;;;2.60;;
14736;SDS011;7459;53.590;10.062;2023-04-24T01:55:05;6.13;;;2.50;;
14736;SDS011;7459;53.590;10.062;2023-04-24T01:57:32;6.85;;;2.42;;
14736;SDS011;7459;53.590;10.062;2023-04-24T02:02:30;6.07;;;2.60;;
14736;SDS011;7459;53.590;10.062;2023-04-24T02:04:56;4.50;;;2.03;;
14736;SDS011;7459;53.590;10.062;2023-04-24T02:07:22;4.40;;;2.13;;
14736;SDS011;7459;53.590;10.062;2023-04-24T02:09:48;6.30;;;2.13;;
14736;SDS011;7459;53.590;10.062;2023-04-24T02:12:14;4.67;;;2.10;;
14736;SDS011;7459;53.590;10.062;2023-04-24T02:14:42;4.20;;;2.17;;
14736;SDS011;7459;53.590;10.062;2023-04-24T02:17:08;5.88;;;2.08;;
14736;SDS011;7459;53.590;10.062;2023-04-24T02:19:34;3.67;;;1.90;;
14736;SDS011;7459;53.590;10.062;2023-04-24T02:22:00;4.32;;;1.88;;
14736;SDS011;7459;53.590;10.062;2023-04-24T02:24:26;4.90;;;1.80;;
14736;SDS011;7459;53.590;10.062;2023-04-24T02:26:51;4.53;;;1.63;;
14736;SDS011;7459;53.590;10.062;2023-04-24T02:29:17;4.93;;;1.45;;
14736;SDS011;7459;53.590;10.062;2023-04-24T02:31:43;3.57;;;1.60;;
14736;SDS011;7459;53.590;10.062;2023-04-24T02:34:08;3.88;;;1.70;;
14736;SDS011;7459;53.590;10.062;2023-04-24T02:36:34;5.00;;;1.70;;
14736;SDS011;7459;53.590;10.062;2023-04-24T02:39:00;3.28;;;1.52;;
14736;SDS011;7459;53.590;10.062;2023-04-24T02:41:26;3.50;;;2.07;;
14736;SDS011;7459;53.590;10.062;2023-04-24T02:43:56;3.50;;;1.73;;
14736;SDS011;7459;53.590;10.062;2023-04-24T02:46:22;5.20;;;1.80;;
14736;SDS011;7459;53.590;10.062;2023-04-24T02:48:48;4.00;;;1.65;;
14736;SDS011;7459;53.590;10.062;2023-04-24T02:51:14;3.60;;;1.70;;
14736;SDS011;7459;53.590;10.062;2023-04-24T02:53:40;4.60;;;1.90;;
14736;SDS011;7459;53.590;10.062;2023-04-24T02:56:05;3.90;;;1.63;;
14736;SDS011;7459;53.590;10.062;2023-04-24T02:58:31;3.87;;;1.37;;
14736;SDS011;7459;53.590;10.062;2023-04-24T03:00:57;4.00;;;1.60;;
14736;SDS011;7459;53.590;10.062;2023-04-24T03:03:22;4.17;;;1.40;;
14736;SDS011;7459;53.590;10.062;2023-04-24T03:05:49;3.37;;;1.20;;
14736;SDS011;7459;53.590;10.062;2023-04-24T03:08:15;3.80;;;1.40;;
14736;SDS011;7459;53.590;10.062;2023-04-24T03:10:41;4.13;;;1.50;;
14736;SDS011;7459;53.590;10.062;2023-04-24T03:13:06;4.90;;;1.47;;
14736;SDS011;7459;53.590;10.062;2023-04-24T03:15:32;3.42;;;1.35;;
14736;SDS011;7459;53.590;10.062;2023-04-24T03:17:58;2.57;;;1.40;;
14736;SDS011;7459;53.590;10.062;2023-04-24T03:20:25;3.97;;;1.70;;
14736;SDS011;7459;53.590;10.062;2023-04-24T03:22:51;3.20;;;1.30;;
14736;SDS011;7459;53.590;10.062;2023-04-24T03:25:17;4.27;;;1.43;;
14736;SDS011;7459;53.590;10.062;2023-04-24T03:27:42;4.35;;;1.42;;
14736;SDS011;7459;53.590;10.062;2023-04-24T03:30:08;3.50;;;1.48;;
14736;SDS011;7459;53.590;10.062;2023-04-24T03:32:35;2.53;;;0.97;;
14736;SDS011;7459;53.590;10.062;2023-04-24T03:35:00;2.63;;;1.15;;
14736;SDS011;7459;53.590;10.062;2023-04-24T03:37:26;3.00;;;1.07;;
14736;SDS011;7459;53.590;10.062;2023-04-24T03:39:52;2.95;;;0.95;;
14736;SDS011;7459;53.590;10.062;2023-04-24T03:42:18;3.37;;;0.90;;
14736;SDS011;7459;53.590;10.062;2023-04-24T03:44:43;3.28;;;1.13;;
14736;SDS011;7459;53.590;10.062;2023-04-24T03:47:09;3.37;;;1.20;;
14736;SDS011;7459;53.590;10.062;2023-04-24T03:49:35;3.58;;;1.10;;
14736;SDS011;7459;53.590;10.062;2023-04-24T03:52:00;3.80;;;1.00;;
14736;SDS011;7459;53.590;10.062;2023-04-24T03:54:26;2.80;;;0.93;;
14736;SDS011;7459;53.590;10.062;2023-04-24T03:56:52;3.13;;;0.88;;
14736;SDS011;7459;53.590;10.062;2023-04-24T03:59:18;3.30;;;0.90;;
14736;SDS011;7459;53.590;10.062;2023-04-24T04:01:44;2.67;;;1.00;;
14736;SDS011;7459;53.590;10.062;2023-04-24T04:04:10;3.28;;;0.80;;
14736;SDS011;7459;53.590;10.062;2023-04-24T04:06:36;2.70;;;0.73;;
14736;SDS011;7459;53.590;10.062;2023-04-24T04:09:02;2.50;;;0.98;;
14736;SDS011;7459;53.590;10.062;2023-04-24T04:11:28;2.60;;;1.10;;
14736;SDS011;7459;53.590;10.062;2023-04-24T04:13:54;3.03;;;1.05;;
14736;SDS011;7459;53.590;10.062;2023-04-24T04:16:21;2.53;;;0.98;;
14736;SDS011;7459;53.590;10.062;2023-04-24T04:18:47;3.20;;;1.02;;
14736;SDS011;7459;53.590;10.062;2023-04-24T04:21:13;2.43;;;0.93;;
14736;SDS011;7459;53.590;10.062;2023-04-24T04:23:39;2.97;;;0.80;;
14736;SDS011;7459;53.590;10.062;2023-04-24T04:26:05;2.00;;;0.80;;
14736;SDS011;7459;53.590;10.062;2023-04-24T04:28:32;2.40;;;0.80;;
14736;SDS011;7459;53.590;10.062;2023-04-24T04:30:58;1.93;;;0.73;;
14736;SDS011;7459;53.590;10.062;2023-04-24T04:33:24;2.58;;;0.70;;
14736;SDS011;7459;53.590;10.062;2023-04-24T04:35:51;1.58;;;0.43;;
14736;SDS011;7459;53.590;10.062;2023-04-24T04:38:17;3.23;;;0.60;;
14736;SDS011;7459;53.590;10.062;2023-04-24T04:40:44;4.28;;;0.70;;
14736;SDS011;7459;53.590;10.062;2023-04-24T04:43:10;1.75;;;0.50;;
14736;SDS011;7459;53.590;10.062;2023-04-24T04:45:38;2.20;;;0.60;;
14736;SDS011;7459;53.590;10.062;2023-04-24T04:48:06;2.83;;;0.77;;
14736;SDS011;7459;53.590;10.062;2023-04-24T04:50:33;2.50;;;0.57;;
14736;SDS011;7459;53.590;10.062;2023-04-24T04:53:00;2.17;;;0.50;;
14736;SDS011;7459;53.590;10.062;2023-04-24T04:55:26;1.77;;;0.50;;
14736;SDS011;7459;53.590;10.062;2023-04-24T04:57:51;2.97;;;0.50;;
14736;SDS011;7459;53.590;10.062;2023-04-24T05:00:17;1.95;;;0.43;;
14736;SDS011;7459;53.590;10.062;2023-04-24T05:02:43;2.63;;;0.80;;
14736;SDS011;7459;53.590;10.062;2023-04-24T05:05:09;1.88;;;0.40;;
14736;SDS011;7459;53.590;10.062;2023-04-24T05:07:35;2.33;;;0.82;;
14736;SDS011;7459;53.590;10.062;2023-04-24T05:10:01;1.97;;;0.60;;
14736;SDS011;7459;53.590;10.062;2023-04-24T05:12:27;2.00;;;0.60;;
14736;SDS011;7459;53.590;10.062;2023-04-24T05:14:53;1.97;;;0.60;;
14736;SDS011;7459;53.590;10.062;2023-04-24T05:17:18;2.50;;;0.80;;
14736;SDS011;7459;53.590;10.062;2023-04-24T05:19:44;3.30;;;0.60;;
14736;SDS011;7459;53.590;10.062;2023-04-24T05:22:11;3.05;;;1.00;;
14736;SDS011;7459;53.590;10.062;2023-04-24T05:24:37;2.43;;;0.77;;
14736;SDS011;7459;53.590;10.062;2023-04-24T05:27:03;2.58;;;0.60;;
14736;SDS011;7459;53.590;10.062;2023-04-24T05:29:32;2.78;;;0.80;;
14736;SDS011;7459;53.590;10.062;2023-04-24T05:31:58;2.53;;;0.75;;
14736;SDS011;7459;53.590;10.062;2023-04-24T05:34:24;1.77;;;0.60;;
14736;SDS011;7459;53.590;10.062;2023-04-24T05:36:50;2.15;;;0.82;;
14736;SDS011;7459;53.590;10.062;2023-04-24T05:39:16;1.83;;;0.60;;
14736;SDS011;7459;53.590;10.062;2023-04-24T05:41:42;2.50;;;0.60;;
14736;SDS011;7459;53.590;10.062;2023-04-24T05:44:08;3.40;;;0.70;;
14736;SDS011;7459;53.590;10.062;2023-04-24T05:46:34;2.40;;;0.90;;
14736;SDS011;7459;53.590;10.062;2023-04-24T05:49:00;3.15;;;0.60;;
14736;SDS011;7459;53.590;10.062;2023-04-24T05:51:26;2.88;;;0.80;;
14736;SDS011;7459;53.590;10.062;2023-04-24T05:53:51;4.20;;;1.03;;
14736;SDS011;7459;53.590;10.062;2023-04-24T05:56:17;3.63;;;0.75;;
14736;SDS011;7459;53.590;10.062;2023-04-24T05:58:43;2.30;;;0.70;;
14736;SDS011;7459;53.590;10.062;2023-04-24T06:01:10;2.22;;;0.70;;
14736;SDS011;7459;53.590;10.062;2023-04-24T06:03:37;4.75;;;0.68;;
14736;SDS011;7459;53.590;10.062;2023-04-24T06:06:05;1.80;;;0.60;;
14736;SDS011;7459;53.590;10.062;2023-04-24T06:08:31;5.15;;;0.93;;
14736;SDS011;7459;53.590;10.062;2023-04-24T06:10:57;3.17;;;0.80;;
14736;SDS011;7459;53.590;10.062;2023-04-24T06:13:23;3.25;;;0.80;;
14736;SDS011;7459;53.590;10.062;2023-04-24T06:15:49;3.10;;;0.80;;
14736;SDS011;7459;53.590;10.062;2023-04-24T06:18:16;4.37;;;0.80;;
14736;SDS011;7459;53.590;10.062;2023-04-24T06:20:42;4.53;;;1.20;;
14736;SDS011;7459;53.590;10.062;2023-04-24T06:23:08;3.90;;;1.02;;
14736;SDS011;7459;53.590;10.062;2023-04-24T06:25:34;1.75;;;0.55;;
14736;SDS011;7459;53.590;10.062;2023-04-24T06:27:59;2.40;;;1.00;;
14736;SDS011;7459;53.590;10.062;2023-04-24T06:30:26;2.17;;;0.70;;
14736;SDS011;7459;53.590;10.062;2023-04-24T06:32:53;2.97;;;0.50;;
14736;SDS011;7459;53.590;10.062;2023-04-24T06:35:18;2.00;;;0.67;;
14736;SDS011;7459;53.590;10.062;2023-04-24T06:37:44;2.72;;;0.70;;
14736;SDS011;7459;53.590;10.062;2023-04-24T06:40:10;3.08;;;0.68;;
14736;SDS011;7459;53.590;10.062;2023-04-24T06:42:36;3.10;;;0.70;;
14736;SDS011;7459;53.590;10.062;2023-04-24T06:45:02;2.15;;;0.70;;
14736;SDS011;7459;53.590;10.062;2023-04-24T06:47:29;2.70;;;0.50;;
14736;SDS011;7459;53.590;10.062;2023-04-24T06:49:55;2.22;;;0.93;;
14736;SDS011;7459;53.590;10.062;2023-04-24T06:52:20;3.47;;;0.80;;
14736;SDS011;7459;53.590;10.062;2023-04-24T06:54:46;2.53;;;0.68;;
14736;SDS011;7459;53.590;10.062;2023-04-24T06:57:12;2.10;;;0.80;;
14736;SDS011;7459;53.590;10.062;2023-04-24T06:59:37;2.17;;;0.80;;
14736;SDS011;7459;53.590;10.062;2023-04-24T07:02:03;2.93;;;0.90;;
14736;SDS011;7459;53.590;10.062;2023-04-24T07:04:29;2.70;;;0.93;;
14736;SDS011;7459;53.590;10.062;2023-04-24T07:06:55;2.45;;;0.63;;
14736;SDS011;7459;53.590;10.062;2023-04-24T07:09:23;2.97;;;1.23;;
14736;SDS011;7459;53.590;10.062;2023-04-24T07:11:50;2.63;;;1.00;;
14736;SDS011;7459;53.590;10.062;2023-04-24T07:14:17;4.45;;;1.50;;
14736;SDS011;7459;53.590;10.062;2023-04-24T07:16:43;3.70;;;1.27;;
14736;SDS011;7459;53.590;10.062;2023-04-24T07:19:08;3.73;;;1.60;;
14736;SDS011;7459;53.590;10.062;2023-04-24T07:21:34;5.85;;;1.40;;
14736;SDS011;7459;53.590;10.062;2023-04-24T07:24:00;3.17;;;1.00;;
14736;SDS011;7459;53.590;10.062;2023-04-24T07:26:27;4.38;;;1.50;;
14736;SDS011;7459;53.590;10.062;2023-04-24T07:28:54;3.63;;;1.53;;
14736;SDS011;7459;53.590;10.062;2023-04-24T07:31:20;3.80;;;1.70;;
14736;SDS011;7459;53.590;10.062;2023-04-24T07:33:46;3.78;;;1.67;;
14736;SDS011;7459;53.590;10.062;2023-04-24T07:36:12;2.88;;;1.35;;
14736;SDS011;7459;53.590;10.062;2023-04-24T07:38:44;6.63;;;1.77;;
14736;SDS011;7459;53.590;10.062;2023-04-24T07:41:12;3.83;;;1.60;;
14736;SDS011;7459;53.590;10.062;2023-04-24T07:43:39;4.28;;;1.92;;
14736;SDS011;7459;53.590;10.062;2023-04-24T07:46:05;4.22;;;1.90;;
14736;SDS011;7459;53.590;10.062;2023-04-24T07:48:32;5.03;;;1.80;;
14736;SDS011;7459;53.590;10.062;2023-04-24T07:50:57;4.30;;;1.90;;
14736;SDS011;7459;53.590;10.062;2023-04-24T07:53:23;3.60;;;1.70;;
14736;SDS011;7459;53.590;10.062;2023-04-24T07:55:49;3.73;;;1.90;;
14736;SDS011;7459;53.590;10.062;2023-04-24T07:58:15;4.55;;;2.05;;
14736;SDS011;7459;53.590;10.062;2023-04-24T08:00:40;4.07;;;2.00;;
14736;SDS011;7459;53.590;10.062;2023-04-24T08:03:06;5.20;;;2.40;;
14736;SDS011;7459;53.590;10.062;2023-04-24T08:05:32;4.80;;;2.50;;
14736;SDS011;7459;53.590;10.062;2023-04-24T08:07:57;4.88;;;2.47;;
14736;SDS011;7459;53.590;10.062;2023-04-24T08:10:23;4.93;;;2.13;;
14736;SDS011;7459;53.590;10.062;2023-04-24T08:12:50;5.72;;;2.40;;
14736;SDS011;7459;53.590;10.062;2023-04-24T08:15:15;5.83;;;2.90;;
14736;SDS011;7459;53.590;10.062;2023-04-24T08:17:41;4.72;;;2.40;;
14736;SDS011;7459;53.590;10.062;2023-04-24T08:20:08;6.20;;;2.67;;
14736;SDS011;7459;53.590;10.062;2023-04-24T08:22:38;5.32;;;2.70;;
14736;SDS011;7459;53.590;10.062;2023-04-24T08:25:05;6.43;;;3.00;;
14736;SDS011;7459;53.590;10.062;2023-04-24T08:27:32;4.85;;;3.13;;
14736;SDS011;7459;53.590;10.062;2023-04-24T08:29:57;4.90;;;2.90;;
14736;SDS011;7459;53.590;10.062;2023-04-24T08:32:26;5.82;;;3.05;;
14736;SDS011;7459;53.590;10.062;2023-04-24T08:34:55;6.38;;;3.00;;
14736;SDS011;7459;53.590;10.062;2023-04-24T08:37:22;5.50;;;2.80;;
14736;SDS011;7459;53.590;10.062;2023-04-24T08:39:48;7.03;;;2.70;;
14736;SDS011;7459;53.590;10.062;2023-04-24T08:42:15;5.75;;;2.50;;
14736;SDS011;7459;53.590;10.062;2023-04-24T08:44:43;5.28;;;2.50;;
14736;SDS011;7459;53.590;10.062;2023-04-24T08:47:09;4.55;;;2.10;;
14736;SDS011;7459;53.590;10.062;2023-04-24T08:49:37;4.78;;;2.47;;
14736;SDS011;7459;53.590;10.062;2023-04-24T08:52:05;4.43;;;2.37;;
14736;SDS011;7459;53.590;10.062;2023-04-24T08:54:31;5.25;;;2.58;;
14736;SDS011;7459;53.590;10.062;2023-04-24T08:57:00;5.68;;;2.72;;
14736;SDS011;7459;53.590;10.062;2023-04-24T08:59:28;6.07;;;2.72;;
14736;SDS011;7459;53.590;10.062;2023-04-24T09:01:56;7.30;;;3.33;;
14736;SDS011;7459;53.590;10.062;2023-04-24T09:04:22;5.57;;;3.20;;
14736;SDS011;7459;53.590;10.062;2023-04-24T09:06:50;8.55;;;3.17;;
14736;SDS011;7459;53.590;10.062;2023-04-24T09:09:19;5.22;;;3.03;;
14736;SDS011;7459;53.590;10.062;2023-04-24T09:11:46;6.53;;;3.17;;
14736;SDS011;7459;53.590;10.062;2023-04-24T09:14:14;6.57;;;3.30;;
14736;SDS011;7459;53.590;10.062;2023-04-24T09:16:41;5.43;;;3.30;;
14736;SDS011;7459;53.590;10.062;2023-04-24T09:19:06;5.82;;;2.85;;
14736;SDS011;7459;53.590;10.062;2023-04-24T09:21:33;6.03;;;3.42;;
14736;SDS011;7459;53.590;10.062;2023-04-24T09:24:01;8.35;;;3.45;;
14736;SDS011;7459;53.590;10.062;2023-04-24T09:26:45;6.33;;;3.50;;
14736;SDS011;7459;53.590;10.062;2023-04-24T09:29:17;6.00;;;3.28;;
14736;SDS011;7459;53.590;10.062;2023-04-24T09:31:44;6.20;;;3.08;;
14736;SDS011;7459;53.590;10.062;2023-04-24T09:34:10;6.77;;;2.77;;
14736;SDS011;7459;53.590;10.062;2023-04-24T09:36:41;5.70;;;2.65;;
14736;SDS011;7459;53.590;10.062;2023-04-24T09:39:09;5.95;;;3.40;;
14736;SDS011;7459;53.590;10.062;2023-04-24T09:41:47;5.95;;;3.15;;
14736;SDS011;7459;53.590;10.062;2023-04-24T09:44:18;6.47;;;2.95;;
14736;SDS011;7459;53.590;10.062;2023-04-24T09:46:50;5.90;;;2.80;;
14736;SDS011;7459;53.590;10.062;2023-04-24T09:49:22;6.35;;;3.05;;
14736;SDS011;7459;53.590;10.062;2023-04-24T09:52:07;5.88;;;3.42;;
14736;SDS011;7459;53.590;10.062;2023-04-24T09:54:34;6.10;;;3.33;;
14736;SDS011;7459;53.590;10.062;2023-04-24T09:57:01;7.50;;;2.80;;
14736;SDS011;7459;53.590;10.062;2023-04-24T09:59:28;6.20;;;3.40;;
14736;SDS011;7459;53.590;10.062;2023-04-24T10:01:54;6.15;;;3.72;;
14736;SDS011;7459;53.590;10.062;2023-04-24T10:04:22;7.60;;;4.35;;
14736;SDS011;7459;53.590;10.062;2023-04-24T10:06:52;6.70;;;3.25;;
14736;SDS011;7459;53.590;10.062;2023-04-24T10:09:21;9.10;;;4.82;;
14736;SDS011;7459;53.590;10.062;2023-04-24T10:11:51;6.57;;;3.30;;
14736;SDS011;7459;53.590;10.062;2023-04-24T10:14:19;7.47;;;4.10;;
14736;SDS011;7459;53.590;10.062;2023-04-24T10:16:47;8.50;;;4.15;;
14736;SDS011;7459;53.590;10.062;2023-04-24T10:19:15;7.38;;;4.10;;
14736;SDS011;7459;53.590;10.062;2023-04-24T10:21:43;7.72;;;4.93;;
14736;SDS011;7459;53.590;10.062;2023-04-24T10:24:13;7.30;;;4.03;;
14736;SDS011;7459;53.590;10.062;2023-04-24T10:26:40;9.13;;;4.38;;
14736;SDS011;7459;53.590;10.062;2023-04-24T10:29:07;8.25;;;4.32;;
14736;SDS011;7459;53.590;10.062;2023-04-24T10:31:37;6.97;;;4.20;;
14736;SDS011;7459;53.590;10.062;2023-04-24T10:34:04;9.52;;;5.00;;
14736;SDS011;7459;53.590;10.062;2023-04-24T10:36:32;9.23;;;5.17;;
14736;SDS011;7459;53.590;10.062;2023-04-24T10:39:02;8.00;;;4.65;;
14736;SDS011;7459;53.590;10.062;2023-04-24T10:41:32;10.07;;;5.75;;
14736;SDS011;7459;53.590;10.062;2023-04-24T10:46:32;11.52;;;6.25;;
14736;SDS011;7459;53.590;10.062;2023-04-24T10:48:58;8.80;;;5.37;;
14736;SDS011;7459;53.590;10.062;2023-04-24T10:51:24;10.07;;;6.15;;
14736;SDS011;7459;53.590;10.062;2023-04-24T10:54:22;10.27;;;6.25;;
14736;SDS011;7459;53.590;10.062;2023-04-24T10:56:52;11.43;;;5.75;;
14736;SDS011;7459;53.590;10.062;2023-04-24T10:59:25;10.97;;;6.20;;
14736;SDS011;7459;53.590;10.062;2023-04-24T11:01:59;9.38;;;5.82;;
14736;SDS011;7459;53.590;10.062;2023-04-24T11:04:29;9.20;;;5.53;;
14736;SDS011;7459;53.590;10.062;2023-04-24T11:06:56;10.27;;;5.30;;
14736;SDS011;7459;53.590;10.062;2023-04-24T11:09:22;10.52;;;6.18;;
14736;SDS011;7459;53.590;10.062;2023-04-24T11:12:02;11.07;;;5.50;;
14736;SDS011;7459;53.590;10.062;2023-04-24T11:17:28;9.25;;;4.88;;
14736;SDS011;7459;53.590;10.062;2023-04-24T11:20:03;13.70;;;5.77;;
14736;SDS011;7459;53.590;10.062;2023-04-24T11:22:35;12.00;;;5.50;;
14736;SDS011;7459;53.590;10.062;2023-04-24T11:25:05;10.27;;;5.55;;
14736;SDS011;7459;53.590;10.062;2023-04-24T11:27:37;10.50;;;5.22;;
14736;SDS011;7459;53.590;10.062;2023-04-24T11:30:08;10.43;;;5.95;;
14736;SDS011;7459;53.590;10.062;2023-04-24T11:32:36;9.87;;;5.50;;
14736;SDS011;7459;53.590;10.062;2023-04-24T11:35:08;10.80;;;5.15;;
14736;SDS011;7459;53.590;10.062;2023-04-24T11:37:44;10.13;;;4.97;;
14736;SDS011;7459;53.590;10.062;2023-04-24T11:40:12;9.82;;;5.78;;
14736;SDS011;7459;53.590;10.062;2023-04-24T11:42:46;9.68;;;5.13;;
14736;SDS011;7459;53.590;10.062;2023-04-24T11:45:13;9.47;;;5.77;;
14736;SDS011;7459;53.590;10.062;2023-04-24T11:47:46;10.07;;;5.13;;
14736;SDS011;7459;53.590;10.062;2023-04-24T11:50:13;8.68;;;5.07;;
14736;SDS011;7459;53.590;10.062;2023-04-24T11:52:41;9.50;;;5.07;;
14736;SDS011;7459;53.590;10.062;2023-04-24T11:57:48;10.10;;;5.43;;
14736;SDS011;7459;53.590;10.062;2023-04-24T12:00:22;10.18;;;5.43;;
14736;SDS011;7459;53.590;10.062;2023-04-24T12:02:51;13.52;;;5.55;;
14736;SDS011;7459;53.590;10.062;2023-04-24T12:05:28;11.70;;;5.38;;
14736;SDS011;7459;53.590;10.062;2023-04-24T12:07:56;12.83;;;5.73;;
14736;SDS011;7459;53.590;10.062;2023-04-24T12:10:23;9.38;;;4.50;;
14736;SDS011;7459;53.590;10.062;2023-04-24T12:12:51;7.85;;;3.90;;
14736;SDS011;7459;53.590;10.062;2023-04-24T12:15:18;7.43;;;4.35;;
14736;SDS011;7459;53.590;10.062;2023-04-24T12:17:45;8.50;;;4.50;;
14736;SDS011;7459;53.590;10.062;2023-04-24T12:20:12;8.90;;;4.45;;
14736;SDS011;7459;53.590;10.062;2023-04-24T12:22:43;8.18;;;4.47;;
14736;SDS011;7459;53.590;10.062;2023-04-24T12:25:12;7.88;;;4.25;;
14736;SDS011;7459;53.590;10.062;2023-04-24T12:27:38;7.83;;;3.80;;
14736;SDS011;7459;53.590;10.062;2023-04-24T12:30:04;7.28;;;4.15;;
14736;SDS011;7459;53.590;10.062;2023-04-24T12:32:34;8.38;;;4.80;;
14736;SDS011;7459;53.590;10.062;2023-04-24T12:35:00;8.90;;;4.13;;
14736;SDS011;7459;53.590;10.062;2023-04-24T12:37:26;7.80;;;3.83;;
14736;SDS011;7459;53.590;10.062;2023-04-24T12:40:06;7.97;;;4.50;;
14736;SDS011;7459;53.590;10.062;2023-04-24T12:42:35;8.23;;;3.70;;
14736;SDS011;7459;53.590;10.062;2023-04-24T12:45:07;7.57;;;4.50;;
14736;SDS011;7459;53.590;10.062;2023-04-24T12:47:33;7.60;;;4.00;;
14736;SDS011;7459;53.590;10.062;2023-04-24T12:50:01;7.57;;;4.18;;
14736;SDS011;7459;53.590;10.062;2023-04-24T12:52:28;8.33;;;3.90;;
14736;SDS011;7459;53.590;10.062;2023-04-24T12:54:58;8.10;;;5.15;;
14736;SDS011;7459;53.590;10.062;2023-04-24T12:57:26;9.48;;;4.50;;
14736;SDS011;7459;53.590;10.062;2023-04-24T12:59:54;10.02;;;4.75;;
14736;SDS011;7459;53.590;10.062;2023-04-24T13:02:21;8.70;;;4.90;;
14736;SDS011;7459;53.590;10.062;2023-04-24T13:04:48;9.43;;;4.27;;
14736;SDS011;7459;53.590;10.062;2023-04-24T13:07:15;9.18;;;4.90;;
14736;SDS011;7459;53.590;10.062;2023-04-24T13:09:41;7.05;;;4.53;;
14736;SDS011;7459;53.590;10.062;2023-04-24T13:12:09;7.28;;;4.07;;
14736;SDS011;7459;53.590;10.062;2023-04-24T13:14:36;7.47;;;3.92;;
14736;SDS011;7459;53.590;10.062;2023-04-24T13:17:02;6.27;;;3.60;;
14736;SDS011;7459;53.590;10.062;2023-04-24T13:19:28;7.32;;;4.20;;
14736;SDS011;7459;53.590;10.062;2023-04-24T13:21:54;7.05;;;3.63;;
14736;SDS011;7459;53.590;10.062;2023-04-24T13:24:22;7.45;;;4.00;;
14736;SDS011;7459;53.590;10.062;2023-04-24T13:26:51;6.68;;;3.75;;
14736;SDS011;7459;53.590;10.062;2023-04-24T13:29:21;7.17;;;3.93;;
14736;SDS011;7459;53.590;10.062;2023-04-24T13:31:49;6.63;;;3.50;;
14736;SDS011;7459;53.590;10.062;2023-04-24T13:34:16;7.68;;;3.85;;
14736;SDS011;7459;53.590;10.062;2023-04-24T13:36:42;6.07;;;3.47;;
14736;SDS011;7459;53.590;10.062;2023-04-24T13:39:08;7.20;;;3.83;;
14736;SDS011;7459;53.590;10.062;2023-04-24T13:41:35;6.32;;;3.08;;
14736;SDS011;7459;53.590;10.062;2023-04-24T13:44:01;5.78;;;3.28;;
14736;SDS011;7459;53.590;10.062;2023-04-24T13:46:28;5.68;;;3.50;;
14736;SDS011;7459;53.590;10.062;2023-04-24T13:48:54;5.87;;;3.70;;
14736;SDS011;7459;53.590;10.062;2023-04-24T13:51:20;8.55;;;3.60;;
14736;SDS011;7459;53.590;10.062;2023-04-24T13:53:45;6.03;;;2.73;;
14736;SDS011;7459;53.590;10.062;2023-04-24T13:56:11;5.70;;;3.20;;
14736;SDS011;7459;53.590;10.062;2023-04-24T13:58:38;6.35;;;3.20;;
14736;SDS011;7459;53.590;10.062;2023-04-24T14:01:04;5.67;;;3.27;;
14736;SDS011;7459;53.590;10.062;2023-04-24T14:03:30;5.70;;;3.10;;
14736;SDS011;7459;53.590;10.062;2023-04-24T14:05:56;5.57;;;3.08;;
14736;SDS011;7459;53.590;10.062;2023-04-24T14:08:22;6.20;;;3.47;;
14736;SDS011;7459;53.590;10.062;2023-04-24T14:10:48;6.85;;;3.38;;
14736;SDS011;7459;53.590;10.062;2023-04-24T14:13:15;6.45;;;3.42;;
14736;SDS011;7459;53.590;10.062;2023-04-24T14:15:41;10.37;;;3.20;;
14736;SDS011;7459;53.590;10.062;2023-04-24T14:18:07;6.38;;;3.53;;
14736;SDS011;7459;53.590;10.062;2023-04-24T14:20:33;5.77;;;3.20;;
14736;SDS011;7459;53.590;10.062;2023-04-24T14:22:59;5.60;;;3.20;;
14736;SDS011;7459;53.590;10.062;2023-04-24T14:25:25;5.18;;;2.72;;
14736;SDS011;7459;53.590;10.062;2023-04-24T14:27:51;5.50;;;2.80;;
14736;SDS011;7459;53.590;10.062;2023-04-24T14:30:17;6.57;;;3.05;;
14736;SDS011;7459;53.590;10.062;2023-04-24T14:32:44;5.20;;;2.75;;
14736;SDS011;7459;53.590;10.062;2023-04-24T14:35:09;5.78;;;2.80;;
14736;SDS011;7459;53.590;10.062;2023-04-24T14:37:35;5.70;;;3.33;;
14736;SDS011;7459;53.590;10.062;2023-04-24T14:40:01;5.82;;;3.50;;
14736;SDS011;7459;53.590;10.062;2023-04-24T14:42:30;6.97;;;3.70;;
14736;SDS011;7459;53.590;10.062;2023-04-24T14:44:56;6.23;;;3.30;;
14736;SDS011;7459;53.590;10.062;2023-04-24T14:47:21;10.93;;;4.45;;
14736;SDS011;7459;53.590;10.062;2023-04-24T14:49:47;8.50;;;4.70;;
14736;SDS011;7459;53.590;10.062;2023-04-24T14:52:13;7.45;;;4.82;;
14736;SDS011;7459;53.590;10.062;2023-04-24T14:54:39;7.43;;;4.33;;
14736;SDS011;7459;53.590;10.062;2023-04-24T14:57:05;6.25;;;3.65;;